Weather at Fairview Airport

Public forecast

Using degrees Fahrenheit for public forecast. Weather courtesy of forecast.io.

Closest aviation weather report (METAR) to Fairview Airport

Closest report is Fort Worth Alliance Airport, 8.4 nm (15.6 km) SE. Retrieved 2020/09/27 03:53 UTC (46 minutes ago):

KAFW 270353Z 15014KT 10SM CLR 25/18 A2978 RMK AO2 SLP070 T02500178

Closest aviation forecast (TAF) to Fairview Airport

Closest forecast is Fort Worth Alliance Airport, 8.4 nm (15.6 km) SE. Retrieved 2020-09-27 00:36 UTC (4 hours ago):

TAF KAFW 262335Z 2700/2724 17015G22KT P6SM SKC FM271200 18014KT P6SM BKN015 FM271500 19017G27KT P6SM BKN015 FM271600 19018G29KT P6SM SCT050 FM272200 18017KT P6SM FEW050